createdAt,value
2023-05-07T00:01:20.133Z,97124.75
2023-05-07T00:03:47.064Z,97139.13
2023-05-07T00:06:13.901Z,97104.97
2023-05-07T00:08:40.309Z,97094.69
2023-05-07T00:11:06.896Z,97082.03
2023-05-07T00:13:36.264Z,97082.28
2023-05-07T00:16:03.564Z,97096.00
2023-05-07T00:18:30.013Z,97080.06
2023-05-07T00:20:57.217Z,97074.16
2023-05-07T00:23:24.135Z,97081.47
2023-05-07T00:25:50.690Z,97116.13
2023-05-07T00:28:17.026Z,97069.63
2023-05-07T00:30:43.377Z,97110.59
2023-05-07T00:33:09.925Z,97134.75
2023-05-07T00:35:36.295Z,97133.91
2023-05-07T00:38:02.671Z,97131.22
2023-05-07T00:40:29.059Z,97139.66
2023-05-07T00:42:57.622Z,97153.50
2023-05-07T00:45:23.976Z,97138.75
2023-05-07T00:47:50.460Z,97150.91
2023-05-07T00:50:18.009Z,97158.50
2023-05-07T00:52:44.482Z,97145.97
2023-05-07T00:55:11.288Z,97160.97
2023-05-07T00:57:38.319Z,97167.91
2023-05-07T01:00:05.860Z,97187.56
2023-05-07T01:02:32.371Z,97216.50
2023-05-07T01:04:58.991Z,97192.81
2023-05-07T01:07:25.840Z,97227.53
2023-05-07T01:09:52.246Z,97249.97
2023-05-07T01:12:18.579Z,97231.38
2023-05-07T01:14:44.988Z,97265.41
2023-05-07T01:17:11.745Z,97301.63
2023-05-07T01:19:38.104Z,97306.25
2023-05-07T01:22:10.001Z,97309.94
2023-05-07T01:24:36.364Z,97289.94
2023-05-07T01:27:02.797Z,97288.06
2023-05-07T01:29:29.740Z,97302.69
2023-05-07T01:31:58.946Z,97324.72
2023-05-07T01:34:26.826Z,97338.56
2023-05-07T01:36:54.287Z,97335.69
2023-05-07T01:39:20.875Z,97320.22
2023-05-07T01:41:47.233Z,97344.94
2023-05-07T01:44:13.643Z,97337.81
2023-05-07T01:46:40.232Z,97364.34
2023-05-07T01:49:06.628Z,97373.06
2023-05-07T01:51:32.957Z,97383.53
2023-05-07T01:53:59.345Z,97386.50
2023-05-07T01:56:25.912Z,97356.88
2023-05-07T01:58:52.717Z,97341.78
2023-05-07T02:01:19.348Z,97345.44
2023-05-07T02:03:46.043Z,97372.84
2023-05-07T02:06:12.584Z,97375.19
2023-05-07T02:08:38.957Z,97379.97
2023-05-07T02:11:05.482Z,97377.72
2023-05-07T02:13:33.918Z,97361.88
2023-05-07T02:16:00.496Z,97374.72
2023-05-07T02:18:26.948Z,97370.94
2023-05-07T02:20:53.297Z,97349.03
2023-05-07T02:23:19.854Z,97331.41
2023-05-07T02:25:46.947Z,97336.91
2023-05-07T02:28:13.614Z,97332.38
2023-05-07T02:30:40.225Z,97308.56
2023-05-07T02:33:07.366Z,97297.50
2023-05-07T02:35:33.760Z,97305.22
2023-05-07T02:38:00.163Z,97336.44
2023-05-07T02:40:26.524Z,97323.09
2023-05-07T02:42:52.879Z,97319.78
2023-05-07T02:45:19.414Z,97312.88
2023-05-07T02:47:45.968Z,97288.09
2023-05-07T02:50:12.488Z,97298.94
2023-05-07T02:52:39.248Z,97299.78
2023-05-07T02:55:06.132Z,97308.09
2023-05-07T02:57:32.489Z,97276.56
2023-05-07T02:59:59.404Z,97286.69
2023-05-07T03:02:25.815Z,97287.44
2023-05-07T03:04:52.713Z,97274.53
2023-05-07T03:07:19.153Z,97306.44
2023-05-07T03:09:45.496Z,97308.81
2023-05-07T03:12:11.843Z,97331.16
2023-05-07T03:14:38.408Z,97330.81
2023-05-07T03:17:04.865Z,97336.31
2023-05-07T03:19:31.633Z,97327.88
2023-05-07T03:21:58.261Z,97300.25
2023-05-07T03:24:24.604Z,97281.56
2023-05-07T03:26:50.968Z,97277.03
2023-05-07T03:29:17.514Z,97253.16
2023-05-07T03:31:44.677Z,97261.72
2023-05-07T03:34:11.094Z,97256.00
2023-05-07T03:36:37.509Z,97256.94
2023-05-07T03:39:03.862Z,97269.19
2023-05-07T03:41:30.666Z,97270.63
2023-05-07T03:43:57.335Z,97283.81
2023-05-07T03:46:23.731Z,97325.44
2023-05-07T03:48:50.141Z,97376.56
2023-05-07T03:51:16.684Z,97395.38
2023-05-07T03:53:43.036Z,97471.72
2023-05-07T03:56:09.435Z,97541.25
2023-05-07T03:58:36.118Z,97585.72
2023-05-07T04:01:02.538Z,97652.00
2023-05-07T04:03:29.185Z,97683.28
2023-05-07T04:05:55.761Z,97710.81
2023-05-07T04:08:22.150Z,97737.19
2023-05-07T04:10:48.487Z,97737.59
2023-05-07T04:13:15.090Z,97775.53
2023-05-07T04:15:41.525Z,97802.09
2023-05-07T04:18:07.912Z,97780.44
2023-05-07T04:20:35.811Z,97770.69
2023-05-07T04:23:02.181Z,97789.09
2023-05-07T04:25:28.649Z,97762.44
2023-05-07T04:27:57.879Z,97754.34
2023-05-07T04:30:24.594Z,97787.66
2023-05-07T04:32:51.347Z,97772.50
2023-05-07T04:35:18.362Z,97740.03
2023-05-07T04:37:44.715Z,97759.16
2023-05-07T04:40:11.513Z,97757.91
2023-05-07T04:42:38.032Z,97783.13
2023-05-07T04:45:05.821Z,97783.47
2023-05-07T04:47:32.189Z,97774.56
2023-05-07T04:49:59.076Z,97764.19
2023-05-07T04:52:27.217Z,97775.72
2023-05-07T04:54:53.806Z,97800.84
2023-05-07T04:57:20.531Z,97824.50
2023-05-07T04:59:46.878Z,97819.03
2023-05-07T05:02:13.220Z,97873.59
2023-05-07T05:04:39.765Z,97907.22
2023-05-07T05:07:06.231Z,97937.38
2023-05-07T05:09:32.591Z,97966.69
2023-05-07T05:11:58.972Z,97974.69
2023-05-07T05:14:25.464Z,98003.34
2023-05-07T05:16:51.897Z,98006.09
2023-05-07T05:19:18.367Z,97996.66
2023-05-07T05:21:44.764Z,97994.97
2023-05-07T05:24:11.121Z,97992.16
2023-05-07T05:26:37.666Z,97968.78
2023-05-07T05:29:04.191Z,98004.09
2023-05-07T05:31:30.724Z,98028.63
2023-05-07T05:33:57.352Z,98004.81
2023-05-07T05:36:23.713Z,98004.63
2023-05-07T05:38:50.171Z,98029.13
2023-05-07T05:41:16.534Z,98013.44
2023-05-07T05:43:42.877Z,98018.44
2023-05-07T05:46:11.984Z,98037.31
2023-05-07T05:48:38.608Z,98044.44
2023-05-07T05:51:04.958Z,98023.47
2023-05-07T05:53:31.300Z,98045.28
2023-05-07T05:55:57.691Z,98048.31
2023-05-07T05:58:24.090Z,98041.63
2023-05-07T06:00:53.117Z,98088.22
2023-05-07T06:03:19.710Z,98072.72
2023-05-07T06:05:46.086Z,98087.19
2023-05-07T06:08:12.489Z,98104.66
2023-05-07T06:10:38.928Z,98114.94
2023-05-07T06:13:05.366Z,98117.91
2023-05-07T06:15:31.806Z,98127.22
2023-05-07T06:17:58.478Z,98141.06
2023-05-07T06:20:24.916Z,98149.56
2023-05-07T06:22:51.250Z,98158.47
2023-05-07T06:25:17.651Z,98159.84
2023-05-07T06:27:44.092Z,98144.47
2023-05-07T06:30:10.973Z,98187.00
2023-05-07T06:32:37.948Z,98187.00
2023-05-07T06:35:04.602Z,98220.13
2023-05-07T06:37:30.951Z,98206.84
2023-05-07T06:39:59.289Z,98154.81
2023-05-07T06:42:26.400Z,98161.75
2023-05-07T06:44:53.182Z,98141.94
2023-05-07T06:47:19.702Z,98170.16
2023-05-07T06:49:46.219Z,98215.22
2023-05-07T06:52:12.578Z,98234.72
2023-05-07T06:54:39.202Z,98216.63
2023-05-07T06:57:05.698Z,98258.75
2023-05-07T06:59:32.045Z,98235.78
2023-05-07T07:01:58.746Z,98241.78
2023-05-07T07:04:26.289Z,98255.19
2023-05-07T07:06:53.861Z,98278.09
2023-05-07T07:09:22.134Z,98321.84
2023-05-07T07:11:50.252Z,98348.66
2023-05-07T07:14:16.638Z,98358.00
2023-05-07T07:16:43.198Z,98353.78
2023-05-07T07:19:09.820Z,98376.03
2023-05-07T07:21:36.170Z,98370.78
2023-05-07T07:24:05.769Z,98379.78
2023-05-07T07:26:32.288Z,98369.88
2023-05-07T07:28:58.708Z,98345.16
2023-05-07T07:31:25.605Z,98362.38
2023-05-07T07:33:53.274Z,98323.59
2023-05-07T07:36:19.877Z,98358.03
2023-05-07T07:38:46.255Z,98354.59
2023-05-07T07:41:12.671Z,98346.81
2023-05-07T07:43:39.047Z,98323.25
2023-05-07T07:46:05.590Z,98299.66
2023-05-07T07:48:31.924Z,98324.63
2023-05-07T07:50:58.624Z,98364.28
2023-05-07T07:53:25.164Z,98357.59
2023-05-07T07:55:51.529Z,98353.44
2023-05-07T07:58:17.939Z,98378.22
2023-05-07T08:00:44.529Z,98418.91
2023-05-07T08:03:11.741Z,98434.19
2023-05-07T08:05:39.374Z,98426.47
2023-05-07T08:08:06.039Z,98422.13
2023-05-07T08:10:35.516Z,98483.00
2023-05-07T08:13:02.727Z,98528.47
2023-05-07T08:15:29.141Z,98579.34
2023-05-07T08:17:57.087Z,98571.84
2023-05-07T08:20:23.548Z,98593.34
2023-05-07T08:22:50.222Z,98607.34
2023-05-07T08:25:16.603Z,98690.31
2023-05-07T08:27:43.029Z,98686.00
2023-05-07T08:30:10.172Z,98663.38
2023-05-07T08:32:36.727Z,98717.88
2023-05-07T08:35:03.357Z,98772.28
2023-05-07T08:37:29.928Z,98823.84
2023-05-07T08:39:56.284Z,98883.69
2023-05-07T08:42:24.549Z,98907.13
2023-05-07T08:44:54.001Z,98914.09
2023-05-07T08:47:22.316Z,98933.75
2023-05-07T08:49:49.387Z,98944.41
2023-05-07T08:52:16.003Z,98975.75
2023-05-07T08:54:42.378Z,98964.16
2023-05-07T08:57:08.736Z,98982.22
2023-05-07T08:59:35.342Z,98937.31
2023-05-07T09:02:01.809Z,98939.31
2023-05-07T09:04:28.422Z,98958.44
2023-05-07T09:06:54.780Z,98944.84
2023-05-07T09:09:22.487Z,98996.91
2023-05-07T09:11:48.824Z,99001.13
2023-05-07T09:14:15.393Z,99055.16
2023-05-07T09:16:41.952Z,99056.53
2023-05-07T09:19:08.464Z,99039.84
2023-05-07T09:21:34.938Z,99041.56
2023-05-07T09:24:01.297Z,99086.75
2023-05-07T09:26:29.087Z,99125.91
2023-05-07T09:28:55.713Z,99154.44
2023-05-07T09:31:24.308Z,99139.06
2023-05-07T09:33:50.994Z,99177.09
2023-05-07T09:36:17.517Z,99180.69
2023-05-07T09:38:43.884Z,99230.91
2023-05-07T09:41:13.810Z,99236.84
2023-05-07T09:43:40.860Z,99217.28
2023-05-07T09:46:14.799Z,99211.06
2023-05-07T09:48:43.260Z,99215.72
2023-05-07T09:51:19.196Z,99257.28
2023-05-07T09:53:47.301Z,99300.56
2023-05-07T09:56:15.223Z,99321.53
2023-05-07T09:58:41.590Z,99325.88
2023-05-07T10:01:08.040Z,99291.84
2023-05-07T10:03:34.738Z,99325.47
2023-05-07T10:06:01.209Z,99339.50
2023-05-07T10:08:27.737Z,99361.00
2023-05-07T10:10:54.123Z,99380.69
2023-05-07T10:13:20.725Z,99401.22
2023-05-07T10:15:49.443Z,99454.16
2023-05-07T10:18:15.958Z,99470.13
2023-05-07T10:20:42.348Z,99482.28
2023-05-07T10:23:08.888Z,99467.44
2023-05-07T10:25:35.300Z,99475.66
2023-05-07T10:28:05.603Z,99465.03
2023-05-07T10:30:39.904Z,99472.72
2023-05-07T10:33:07.287Z,99446.97
2023-05-07T10:35:39.011Z,99447.41
2023-05-07T10:38:05.974Z,99455.06
2023-05-07T10:40:32.534Z,99464.03
2023-05-07T10:43:10.632Z,99453.72
2023-05-07T10:45:37.686Z,99463.38
2023-05-07T10:48:20.987Z,99492.91
2023-05-07T10:51:15.176Z,99512.63
2023-05-07T10:53:41.536Z,99510.91
2023-05-07T10:56:20.244Z,99502.44
2023-05-07T10:58:46.598Z,99511.34
2023-05-07T11:01:14.154Z,99540.16
2023-05-07T11:04:15.453Z,99519.34
2023-05-07T11:06:41.809Z,99534.63
2023-05-07T11:09:08.350Z,99535.19
2023-05-07T11:12:01.154Z,99573.41
2023-05-07T11:14:46.264Z,99556.25
2023-05-07T11:17:12.689Z,99555.38
2023-05-07T11:19:59.336Z,99580.53
2023-05-07T11:22:31.647Z,99573.91
2023-05-07T11:25:01.764Z,99572.97
2023-05-07T11:27:28.197Z,99582.03
2023-05-07T11:29:54.571Z,99577.91
2023-05-07T11:32:30.520Z,99580.53
2023-05-07T11:35:01.107Z,99595.09
2023-05-07T11:37:29.234Z,99598.31
2023-05-07T11:40:06.788Z,99595.16
2023-05-07T11:42:34.888Z,99591.59
2023-05-07T11:45:01.427Z,99590.22
2023-05-07T11:47:28.104Z,99612.94
2023-05-07T11:49:55.040Z,99599.44
2023-05-07T11:52:22.578Z,99597.56
2023-05-07T11:54:56.824Z,99572.19
2023-05-07T11:57:24.074Z,99571.47
2023-05-07T11:59:57.281Z,99604.19
2023-05-07T12:02:28.522Z,99596.72
2023-05-07T12:04:55.195Z,99595.81
2023-05-07T12:07:21.771Z,99602.50
2023-05-07T12:09:48.550Z,99613.03
2023-05-07T12:12:18.640Z,99612.22
2023-05-07T12:14:46.065Z,99612.69
2023-05-07T12:17:13.169Z,99599.75
2023-05-07T12:19:40.692Z,99640.41
2023-05-07T12:22:08.715Z,99628.69
2023-05-07T12:24:47.995Z,99630.69
2023-05-07T12:27:17.552Z,99650.44
2023-05-07T12:29:50.678Z,99643.72
2023-05-07T12:32:17.848Z,99640.91
2023-05-07T12:34:45.279Z,99647.13
2023-05-07T12:37:13.702Z,99644.00
2023-05-07T12:39:48.416Z,99655.63
2023-05-07T12:42:20.587Z,99656.06
2023-05-07T12:44:47.218Z,99660.50
2023-05-07T12:47:16.686Z,99654.00
2023-05-07T12:49:43.108Z,99670.22
2023-05-07T12:52:09.541Z,99674.81
2023-05-07T12:54:38.815Z,99666.88
2023-05-07T12:57:11.267Z,99673.03
2023-05-07T12:59:38.892Z,99674.84
2023-05-07T13:02:05.653Z,99658.88
2023-05-07T13:04:32.084Z,99654.34
2023-05-07T13:06:59.108Z,99679.19
2023-05-07T13:09:25.558Z,99696.38
2023-05-07T13:11:51.891Z,99697.38
2023-05-07T13:14:18.652Z,99713.78
2023-05-07T13:16:45.280Z,99698.53
2023-05-07T13:19:11.970Z,99701.41
2023-05-07T13:21:38.311Z,99702.03
2023-05-07T13:24:04.865Z,99710.63
2023-05-07T13:26:32.057Z,99699.03
2023-05-07T13:28:58.488Z,99706.06
2023-05-07T13:31:25.551Z,99692.00
2023-05-07T13:33:52.024Z,99707.75
2023-05-07T13:36:18.407Z,99754.56
2023-05-07T13:38:44.977Z,99835.25
2023-05-07T13:41:11.441Z,99987.75
2023-05-07T13:43:37.779Z,100157.22
2023-05-07T13:46:04.183Z,100223.75
2023-05-07T13:48:30.604Z,100289.41
2023-05-07T13:50:56.967Z,100332.75
2023-05-07T13:53:23.405Z,100314.00
2023-05-07T13:55:49.854Z,100295.03
2023-05-07T13:58:16.353Z,100317.97
2023-05-07T14:00:42.729Z,100333.28
2023-05-07T14:03:09.153Z,100319.78
2023-05-07T14:05:36.736Z,100360.09
2023-05-07T14:08:04.605Z,100339.22
2023-05-07T14:10:31.447Z,100307.44
2023-05-07T14:12:57.915Z,100285.47
2023-05-07T14:15:24.370Z,100303.38
2023-05-07T14:17:50.730Z,100267.13
2023-05-07T14:20:17.199Z,100255.41
2023-05-07T14:22:43.602Z,100279.63
2023-05-07T14:25:12.601Z,100266.25
2023-05-07T14:27:38.998Z,100293.44
2023-05-07T14:30:06.082Z,100279.22
2023-05-07T14:32:33.584Z,100294.41
2023-05-07T14:34:59.959Z,100361.72
2023-05-07T14:37:26.534Z,100390.56
2023-05-07T14:39:52.896Z,100507.81
2023-05-07T14:42:19.232Z,100817.34
2023-05-07T14:44:46.684Z,100898.78
2023-05-07T14:47:13.775Z,100994.41
2023-05-07T14:49:40.221Z,101016.00
2023-05-07T14:52:07.212Z,101074.50
2023-05-07T14:54:38.291Z,101143.53
2023-05-07T14:57:05.945Z,101155.94
2023-05-07T14:59:32.830Z,101157.66
2023-05-07T15:01:59.241Z,101163.00
2023-05-07T15:04:25.986Z,101170.56
2023-05-07T15:06:53.160Z,101147.91
2023-05-07T15:09:19.532Z,101184.53
2023-05-07T15:11:45.946Z,101198.53
2023-05-07T15:14:12.343Z,101238.44
2023-05-07T15:16:38.804Z,101246.72
2023-05-07T15:19:05.280Z,101246.09
2023-05-07T15:21:35.124Z,101273.13
2023-05-07T15:24:02.052Z,101328.63
2023-05-07T15:26:28.420Z,101373.28
2023-05-07T15:28:57.356Z,101393.94
2023-05-07T15:31:24.912Z,101390.69
2023-05-07T15:33:52.820Z,101405.78
2023-05-07T15:36:19.293Z,101409.34
2023-05-07T15:38:45.742Z,101397.28
2023-05-07T15:41:12.100Z,101392.19
2023-05-07T15:43:46.147Z,101376.47
2023-05-07T15:46:12.604Z,101369.81
2023-05-07T15:48:39.021Z,101373.41
2023-05-07T15:51:06.334Z,101363.91
2023-05-07T15:53:32.726Z,101354.84
2023-05-07T15:55:59.067Z,101356.72
2023-05-07T15:58:25.443Z,101356.16
2023-05-07T16:00:53.350Z,101351.34
2023-05-07T16:03:22.213Z,101324.28
2023-05-07T16:05:48.874Z,101338.41
2023-05-07T16:08:15.273Z,101320.88
2023-05-07T16:10:41.649Z,101330.63
2023-05-07T16:13:08.090Z,101304.72
2023-05-07T16:15:34.572Z,101310.72
2023-05-07T16:18:01.023Z,101291.84
2023-05-07T16:20:29.871Z,101263.50
2023-05-07T16:22:56.588Z,101262.41
2023-05-07T16:25:22.937Z,101254.91
2023-05-07T16:27:49.377Z,101260.81
2023-05-07T16:30:16.220Z,101242.28
2023-05-07T16:32:42.652Z,101208.91
2023-05-07T16:35:09.704Z,101163.50
2023-05-07T16:37:36.088Z,101150.44
2023-05-07T16:40:04.531Z,101146.75
2023-05-07T16:42:30.981Z,101087.44
2023-05-07T16:44:57.350Z,101056.38
2023-05-07T16:47:24.003Z,101063.97
2023-05-07T16:49:50.558Z,101063.97
2023-05-07T16:52:16.937Z,101036.06
2023-05-07T16:54:43.351Z,101022.41
2023-05-07T16:57:09.984Z,100981.09
2023-05-07T16:59:36.326Z,100915.94
2023-05-07T17:02:02.732Z,100817.69
2023-05-07T17:04:29.866Z,100644.50
2023-05-07T17:06:56.898Z,100602.53
2023-05-07T17:09:23.320Z,100556.81
2023-05-07T17:11:49.701Z,100480.19
2023-05-07T17:14:16.126Z,100390.88
2023-05-07T17:16:42.667Z,100387.84
2023-05-07T17:19:09.297Z,100372.03
2023-05-07T17:21:35.800Z,100365.34
2023-05-07T17:24:02.159Z,100356.00
2023-05-07T17:26:28.559Z,100392.91
2023-05-07T17:28:54.941Z,100399.91
2023-05-07T17:31:21.369Z,100427.84
2023-05-07T17:33:47.924Z,100423.56
2023-05-07T17:36:14.591Z,100408.75
2023-05-07T17:38:41.309Z,100416.25
2023-05-07T17:41:07.717Z,100427.16
2023-05-07T17:43:34.146Z,100419.53
2023-05-07T17:46:00.548Z,100409.59
2023-05-07T17:48:27.045Z,100385.59
2023-05-07T17:50:53.392Z,100348.00
2023-05-07T17:53:19.728Z,100311.69
2023-05-07T17:55:46.414Z,100225.22
2023-05-07T17:58:12.816Z,100149.69
2023-05-07T18:00:39.252Z,100047.41
2023-05-07T18:03:05.778Z,100018.56
2023-05-07T18:05:32.263Z,100006.97
2023-05-07T18:07:58.669Z,100004.25
2023-05-07T18:10:25.329Z,99996.53
2023-05-07T18:12:51.753Z,99976.97
2023-05-07T18:15:18.119Z,99962.75
2023-05-07T18:17:44.587Z,99966.78
2023-05-07T18:20:11.744Z,99955.78
2023-05-07T18:22:38.927Z,99943.69
2023-05-07T18:25:06.026Z,99933.38
2023-05-07T18:27:32.381Z,99919.91
2023-05-07T18:29:58.890Z,99913.38
2023-05-07T18:32:25.571Z,99898.03
2023-05-07T18:34:52.117Z,99887.66
2023-05-07T18:37:18.560Z,99863.34
2023-05-07T18:39:46.156Z,99871.38
2023-05-07T18:42:12.955Z,99873.38
2023-05-07T18:44:39.339Z,99870.72
2023-05-07T18:47:06.284Z,99868.41
2023-05-07T18:49:33.547Z,99855.81
2023-05-07T18:52:00.230Z,99857.66
2023-05-07T18:54:26.765Z,99851.47
2023-05-07T18:56:53.218Z,99855.22
2023-05-07T18:59:19.603Z,99833.78
2023-05-07T19:01:46.491Z,99846.00
2023-05-07T19:04:13.027Z,99830.66
2023-05-07T19:06:39.411Z,99814.13
2023-05-07T19:09:05.880Z,99817.59
2023-05-07T19:11:32.208Z,99823.56
2023-05-07T19:13:58.602Z,99830.78
2023-05-07T19:16:25.019Z,99819.56
2023-05-07T19:18:51.628Z,99823.84
2023-05-07T19:21:17.957Z,99829.09
2023-05-07T19:23:46.047Z,99833.56
2023-05-07T19:26:12.409Z,99834.75
2023-05-07T19:28:40.511Z,99826.09
2023-05-07T19:31:18.961Z,99817.72
2023-05-07T19:33:45.734Z,99824.66
2023-05-07T19:36:12.090Z,99815.31
2023-05-07T19:38:38.477Z,99821.66
2023-05-07T19:41:04.840Z,99828.63
2023-05-07T19:43:35.936Z,99833.28
2023-05-07T19:46:02.706Z,99816.66
2023-05-07T19:48:29.065Z,99818.81
2023-05-07T19:50:55.461Z,99827.59
2023-05-07T19:53:21.892Z,99827.84
2023-05-07T19:55:48.246Z,99839.22
2023-05-07T19:58:16.700Z,99848.84
2023-05-07T20:00:43.398Z,99866.31
2023-05-07T20:03:18.110Z,99871.78
2023-05-07T20:05:46.682Z,99878.81
2023-05-07T20:08:13.440Z,99887.81
2023-05-07T20:10:39.836Z,99893.19
2023-05-07T20:13:06.227Z,99896.63
2023-05-07T20:15:32.583Z,99894.22
2023-05-07T20:17:58.964Z,99904.88
2023-05-07T20:20:25.781Z,99902.47
2023-05-07T20:22:52.191Z,99914.56
2023-05-07T20:25:18.617Z,99914.66
2023-05-07T20:27:44.995Z,99921.00
2023-05-07T20:30:12.605Z,99911.38
2023-05-07T20:32:39.437Z,99922.50
2023-05-07T20:35:06.502Z,99911.03
2023-05-07T20:37:33.881Z,99910.16
2023-05-07T20:40:01.141Z,99912.75
2023-05-07T20:42:27.974Z,99922.56
2023-05-07T20:44:55.431Z,99921.78
2023-05-07T20:47:22.034Z,99913.41
2023-05-07T20:49:52.383Z,99919.47
2023-05-07T20:52:19.171Z,99914.34
2023-05-07T20:54:47.324Z,99912.84
2023-05-07T20:57:14.235Z,99914.69
2023-05-07T20:59:40.612Z,99915.47
2023-05-07T21:02:07.693Z,99924.25
2023-05-07T21:04:34.108Z,99921.63
2023-05-07T21:07:00.651Z,99928.59
2023-05-07T21:09:27.285Z,99923.59
2023-05-07T21:11:53.642Z,99934.06
2023-05-07T21:14:20.263Z,99927.91
2023-05-07T21:16:46.739Z,99925.44
2023-05-07T21:19:13.222Z,99929.25
2023-05-07T21:21:39.635Z,99931.03
2023-05-07T21:24:06.681Z,99936.28
2023-05-07T21:26:33.104Z,99935.31
2023-05-07T21:28:59.452Z,99945.28
2023-05-07T21:31:26.364Z,99939.69
2023-05-07T21:33:53.106Z,99932.50
2023-05-07T21:36:19.777Z,99920.03
2023-05-07T21:38:46.158Z,99915.75
2023-05-07T21:41:12.579Z,99892.47
2023-05-07T21:43:38.948Z,99879.66
2023-05-07T21:46:08.644Z,99859.34
2023-05-07T21:48:35.237Z,99849.13
2023-05-07T21:51:02.863Z,99823.28
2023-05-07T21:53:29.958Z,99815.41
2023-05-07T21:55:56.488Z,99804.25
2023-05-07T21:58:22.866Z,99781.84
2023-05-07T22:00:49.387Z,99755.22
2023-05-07T22:03:15.774Z,99734.38
2023-05-07T22:05:42.489Z,99702.63
2023-05-07T22:08:08.832Z,99664.16
2023-05-07T22:10:36.430Z,99646.50
2023-05-07T22:13:03.265Z,99656.25
2023-05-07T22:15:29.729Z,99645.06
2023-05-07T22:17:56.139Z,99636.13
2023-05-07T22:20:22.801Z,99626.53
2023-05-07T22:22:55.836Z,99631.59
2023-05-07T22:25:23.077Z,99625.31
2023-05-07T22:27:49.742Z,99633.34
2023-05-07T22:30:16.276Z,99634.59
2023-05-07T22:32:43.461Z,99606.16
2023-05-07T22:35:10.309Z,99600.72
2023-05-07T22:37:39.628Z,99592.81
2023-05-07T22:40:06.684Z,99600.47
2023-05-07T22:42:33.041Z,99601.59
2023-05-07T22:44:59.485Z,99579.19
2023-05-07T22:47:28.318Z,99568.72
2023-05-07T22:49:54.741Z,99574.56
2023-05-07T22:52:21.139Z,99589.66
2023-05-07T22:54:47.488Z,99574.81
2023-05-07T22:57:13.820Z,99570.19
2023-05-07T22:59:40.196Z,99578.81
2023-05-07T23:02:06.760Z,99581.38
2023-05-07T23:04:33.153Z,99598.72
2023-05-07T23:06:59.522Z,99599.75
2023-05-07T23:09:26.074Z,99607.53
2023-05-07T23:11:52.477Z,99611.81
2023-05-07T23:14:18.833Z,99623.97
2023-05-07T23:16:45.310Z,99638.28
2023-05-07T23:19:11.852Z,99612.22
2023-05-07T23:21:38.390Z,99605.66
2023-05-07T23:24:05.277Z,99607.66
2023-05-07T23:26:31.888Z,99615.56
2023-05-07T23:28:58.360Z,99628.34
2023-05-07T23:31:24.753Z,99663.31
2023-05-07T23:33:51.162Z,99685.91
2023-05-07T23:36:17.740Z,99692.84
2023-05-07T23:38:44.129Z,99712.91
2023-05-07T23:41:10.535Z,99732.09
2023-05-07T23:43:37.120Z,99722.41
2023-05-07T23:46:03.485Z,99725.94
2023-05-07T23:48:29.830Z,99731.38
2023-05-07T23:50:56.218Z,99722.06
2023-05-07T23:53:22.576Z,99702.28
2023-05-07T23:55:48.954Z,99697.84
2023-05-07T23:58:15.525Z,99695.34
